Time;durP1;ratioP1;P1;durP2;ratioP2;P2;SDS_P1;SDS_P2;PMS_P1;PMS_P2;Temp;Humidity;BMP_temperature;BMP_pressure;BME280_temperature;BME280_humidity;BME280_pressure;Samples;Min_cycle;Max_cycle;Signal;HPM_P1;HPM_P2
2022/11/26 00:02:28;;;;;;;18.08;13.13;;;6.40;99.90;;;;;;5090979;28;20107;-52
2022/11/26 00:04:55;;;;;;;16.65;12.82;;;6.40;99.90;;;;;;5090811;28;20114;-54
2022/11/26 00:07:25;;;;;;;21.88;12.27;;;6.40;99.90;;;;;;5092597;28;20107;-52
2022/11/26 00:09:52;;;;;;;16.45;12.13;;;6.40;99.90;;;;;;5092336;28;20063;-53
2022/11/26 00:12:25;;;;;;;18.30;11.90;;;6.40;99.90;;;;;;5091844;28;20019;-53
2022/11/26 00:14:51;;;;;;;18.17;12.35;;;6.40;99.90;;;;;;5092139;28;20035;-50
2022/11/26 00:17:17;;;;;;;15.68;12.40;;;6.50;99.90;;;;;;5092285;28;20027;-51
2022/11/26 00:19:43;;;;;;;21.10;13.57;;;6.40;99.90;;;;;;5092073;28;20032;-52
2022/11/26 00:22:28;;;;;;;15.77;12.63;;;6.40;99.90;;;;;;5092278;28;20105;-52
2022/11/26 00:24:54;;;;;;;19.85;14.15;;;6.40;99.90;;;;;;5092216;28;20057;-56
2022/11/26 00:27:23;;;;;;;19.02;13.02;;;6.40;99.90;;;;;;5092411;28;20027;-54
2022/11/26 00:29:49;;;;;;;13.02;9.60;;;6.30;99.90;;;;;;5092120;28;20067;-52
2022/11/26 00:32:21;;;;;;;16.13;10.38;;;6.40;99.90;;;;;;5090720;28;20391;-52
2022/11/26 00:34:47;;;;;;;12.77;8.98;;;6.30;99.90;;;;;;5090427;28;20035;-54
2022/11/26 00:37:26;;;;;;;10.60;7.45;;;6.20;99.90;;;;;;5090682;28;20345;-52
2022/11/26 00:39:53;;;;;;;15.70;7.95;;;6.30;99.90;;;;;;5091859;28;20028;-52
2022/11/26 00:42:19;;;;;;;16.02;8.68;;;6.30;99.90;;;;;;5092018;28;20020;-54
2022/11/26 00:44:45;;;;;;;9.85;7.25;;;6.30;99.90;;;;;;5091800;28;20055;-52
2022/11/26 00:47:10;;;;;;;11.85;7.35;;;6.30;99.90;;;;;;5091851;28;20032;-51
2022/11/26 00:49:36;;;;;;;14.02;8.07;;;6.20;99.90;;;;;;5091867;28;20502;-52
2022/11/26 00:52:26;;;;;;;11.40;6.55;;;6.20;99.90;;;;;;5091779;28;20478;-53
2022/11/26 00:54:51;;;;;;;8.55;5.82;;;6.20;99.90;;;;;;5091673;28;20028;-52
2022/11/26 00:57:17;;;;;;;15.57;7.47;;;6.10;99.90;;;;;;5091840;28;20360;-53
2022/11/26 00:59:43;;;;;;;13.45;7.15;;;6.10;99.90;;;;;;5091570;28;20057;-51
2022/11/26 01:02:09;;;;;;;15.02;7.22;;;6.10;99.90;;;;;;5091688;28;20444;-53
2022/11/26 01:04:35;;;;;;;11.57;6.30;;;6.00;99.90;;;;;;5091678;28;20062;-51
2022/11/26 01:07:00;;;;;;;10.68;7.20;;;6.10;99.90;;;;;;5091639;28;20071;-54
2022/11/26 01:09:26;;;;;;;13.45;6.55;;;6.10;99.90;;;;;;5091337;28;20063;-52
2022/11/26 01:11:52;;;;;;;13.63;6.72;;;6.10;99.90;;;;;;5091507;28;20567;-51
2022/11/26 01:14:20;;;;;;;16.55;7.80;;;6.10;99.90;;;;;;5091521;28;20103;-52
2022/11/26 01:16:47;;;;;;;16.40;7.13;;;6.10;99.90;;;;;;5091355;28;20048;-52
2022/11/26 01:19:15;;;;;;;13.40;6.30;;;6.10;99.90;;;;;;5091518;28;20058;-52
2022/11/26 01:21:40;;;;;;;17.45;7.47;;;6.10;99.90;;;;;;5091603;28;20472;-51
2022/11/26 01:24:08;;;;;;;14.23;6.10;;;6.10;99.90;;;;;;5095216;28;20035;-50
2022/11/26 01:26:42;;;;;;;9.40;6.35;;;6.10;99.90;;;;;;5094723;28;20024;-51
2022/11/26 01:29:16;;;;;;;11.02;5.90;;;6.10;99.90;;;;;;5094977;28;20031;-52
2022/11/26 01:31:42;;;;;;;12.70;6.53;;;6.00;99.90;;;;;;5094904;28;20036;-51
2022/11/26 01:34:08;;;;;;;14.35;5.30;;;6.00;99.90;;;;;;5094461;28;20027;-51
2022/11/26 01:36:36;;;;;;;13.63;7.50;;;5.90;99.90;;;;;;5094472;28;20024;-52
2022/11/26 01:39:20;;;;;;;12.90;7.05;;;5.90;99.90;;;;;;5094615;28;20028;-52
2022/11/26 01:42:23;;;;;;;9.30;6.30;;;5.80;99.90;;;;;;5094907;28;20066;-51
2022/11/26 01:44:48;;;;;;;18.70;6.70;;;5.80;99.90;;;;;;5094994;28;20077;-51
2022/11/26 01:47:32;;;;;;;12.88;5.80;;;5.90;99.90;;;;;;5094015;28;20019;-50
2022/11/26 01:50:32;;;;;;;7.45;5.60;;;5.90;99.90;;;;;;5095097;28;20039;-51
2022/11/26 01:53:26;;;;;;;10.90;5.20;;;5.90;99.90;;;;;;5094968;28;20031;-51
2022/11/26 01:55:56;;;;;;;11.73;5.20;;;5.90;99.90;;;;;;5094922;28;20028;-51
2022/11/26 01:58:36;;;;;;;11.55;6.22;;;6.00;99.90;;;;;;5094915;28;20086;-51
2022/11/26 02:01:02;;;;;;;8.60;5.13;;;5.90;99.90;;;;;;5094884;28;20020;-52
2022/11/26 02:03:31;;;;;;;10.05;6.45;;;5.90;99.90;;;;;;5095058;28;20162;-50
2022/11/26 02:06:07;;;;;;;13.75;6.13;;;6.00;99.90;;;;;;5094739;28;20035;-50
2022/11/26 02:08:34;;;;;;;10.10;4.80;;;6.00;99.90;;;;;;5093480;28;20049;-51
2022/11/26 02:11:15;;;;;;;11.70;5.30;;;6.00;99.90;;;;;;5094669;28;20414;-51
2022/11/26 02:13:41;;;;;;;11.05;5.65;;;5.90;99.90;;;;;;5094504;28;20085;-52
2022/11/26 02:16:22;;;;;;;8.77;4.63;;;5.90;99.90;;;;;;5094591;28;20020;-51
2022/11/26 02:19:04;;;;;;;11.18;4.75;;;6.00;99.90;;;;;;5094397;28;20012;-53
2022/11/26 02:21:33;;;;;;;8.88;4.82;;;6.00;99.90;;;;;;5094505;28;20127;-51
2022/11/26 02:24:19;;;;;;;8.80;5.10;;;5.90;99.90;;;;;;5094412;28;20028;-53
2022/11/26 02:26:47;;;;;;;12.23;5.38;;;5.90;99.90;;;;;;5094293;28;20448;-52
2022/11/26 02:29:46;;;;;;;10.68;4.85;;;5.90;99.90;;;;;;5094461;28;20028;-51
2022/11/26 02:32:23;;;;;;;9.02;4.35;;;5.90;99.90;;;;;;5088575;28;20685;-53
2022/11/26 02:35:06;;;;;;;14.52;4.78;;;5.90;99.90;;;;;;5093565;28;20433;-55
2022/11/26 02:37:38;;;;;;;10.40;5.25;;;5.80;99.90;;;;;;5094426;28;20028;-52
2022/11/26 02:40:06;;;;;;;7.53;4.75;;;5.80;99.90;;;;;;5094220;28;20035;-53
2022/11/26 02:42:34;;;;;;;8.75;4.90;;;5.80;99.90;;;;;;5094148;28;20024;-52
2022/11/26 02:45:25;;;;;;;10.38;4.43;;;5.70;99.90;;;;;;5092780;28;20027;-54
2022/11/26 02:47:54;;;;;;;6.28;4.22;;;5.70;99.90;;;;;;5087952;28;20093;-51
2022/11/26 02:50:46;;;;;;;9.38;5.22;;;5.70;99.90;;;;;;5093948;28;20110;-52
2022/11/26 02:53:14;;;;;;;5.93;4.43;;;5.60;99.90;;;;;;5092663;28;20024;-50
2022/11/26 02:55:46;;;;;;;11.52;5.40;;;5.70;99.90;;;;;;5093754;28;20054;-52
2022/11/26 02:58:12;;;;;;;13.77;5.13;;;5.70;99.90;;;;;;5093916;28;20447;-52
2022/11/26 03:00:41;;;;;;;10.48;4.28;;;5.60;99.90;;;;;;5093890;28;20111;-55
2022/11/26 03:03:26;;;;;;;10.63;4.30;;;5.60;99.90;;;;;;5093780;28;20020;-50
2022/11/26 03:05:58;;;;;;;12.45;5.25;;;5.60;99.90;;;;;;5093598;28;20105;-52
2022/11/26 03:08:25;;;;;;;9.10;5.30;;;5.60;99.90;;;;;;5093738;28;20020;-51
2022/11/26 03:10:51;;;;;;;8.30;3.95;;;5.50;99.90;;;;;;5093511;28;20491;-53
2022/11/26 03:13:16;;;;;;;10.75;4.45;;;5.50;99.90;;;;;;5093475;28;20032;-53
2022/11/26 03:15:42;;;;;;;6.25;4.10;;;5.40;99.90;;;;;;5093506;28;20050;-56
2022/11/26 03:18:08;;;;;;;11.45;4.80;;;5.30;99.90;;;;;;5093438;28;20034;-51
2022/11/26 03:20:34;;;;;;;8.10;4.38;;;5.20;99.90;;;;;;5093418;28;20049;-52
2022/11/26 03:23:00;;;;;;;7.38;5.15;;;5.20;99.90;;;;;;5093286;28;20031;-55
2022/11/26 03:25:25;;;;;;;7.93;4.65;;;5.20;99.90;;;;;;5093281;28;20023;-52
2022/11/26 03:27:51;;;;;;;12.43;4.60;;;5.10;99.90;;;;;;5093097;28;20058;-52
2022/11/26 03:30:17;;;;;;;12.15;4.90;;;5.10;99.90;;;;;;5093326;28;20024;-53
2022/11/26 03:32:42;;;;;;;11.73;5.40;;;5.00;99.90;;;;;;5093072;28;20028;-51
2022/11/26 03:35:08;;;;;;;13.13;5.90;;;5.00;99.90;;;;;;5093209;28;20772;-51
2022/11/26 03:37:34;;;;;;;11.25;4.80;;;5.00;99.90;;;;;;5091835;28;20035;-53
2022/11/26 03:40:00;;;;;;;16.27;5.22;;;5.00;99.90;;;;;;5091574;28;20398;-55
2022/11/26 03:42:25;;;;;;;10.68;5.47;;;5.00;99.90;;;;;;5092922;28;20025;-52
2022/11/26 03:44:51;;;;;;;13.70;5.32;;;5.00;99.90;;;;;;5092666;28;20031;-52
2022/11/26 03:47:17;;;;;;;8.70;5.00;;;5.00;99.90;;;;;;5092277;28;20024;-52
2022/11/26 03:49:42;;;;;;;8.85;5.47;;;5.00;99.90;;;;;;5093179;28;20023;-51
2022/11/26 03:52:08;;;;;;;13.00;6.05;;;5.10;99.90;;;;;;5092789;28;20024;-52
2022/11/26 03:54:33;;;;;;;15.95;6.47;;;5.10;99.90;;;;;;5092874;28;20024;-52
2022/11/26 03:56:59;;;;;;;19.90;8.13;;;5.10;99.90;;;;;;5092642;28;20522;-53
2022/11/26 03:59:25;;;;;;;14.93;6.30;;;5.20;99.90;;;;;;5092818;28;20371;-52
2022/11/26 04:01:50;;;;;;;12.82;7.15;;;5.20;99.90;;;;;;5092691;28;20024;-52
2022/11/26 04:04:16;;;;;;;13.95;9.00;;;5.30;99.90;;;;;;5092568;28;20024;-51
2022/11/26 04:06:42;;;;;;;14.57;7.40;;;5.30;99.90;;;;;;5092600;28;20028;-52
2022/11/26 04:09:07;;;;;;;21.33;7.55;;;5.30;99.90;;;;;;5092431;28;20150;-51
2022/11/26 04:11:33;;;;;;;17.42;6.88;;;5.30;99.90;;;;;;5092489;28;20077;-52
2022/11/26 04:13:59;;;;;;;11.98;6.72;;;5.30;99.90;;;;;;5092248;28;20028;-52
2022/11/26 04:16:24;;;;;;;11.93;5.55;;;5.30;99.90;;;;;;5092340;28;20387;-50
2022/11/26 04:18:50;;;;;;;14.70;5.15;;;5.40;99.90;;;;;;5092319;28;20016;-51
2022/11/26 04:21:16;;;;;;;9.50;5.30;;;5.50;99.90;;;;;;5092131;28;20044;-54
2022/11/26 04:23:41;;;;;;;12.95;4.85;;;5.50;99.90;;;;;;5092149;28;20454;-51
2022/11/26 04:26:07;;;;;;;13.05;6.25;;;5.50;99.90;;;;;;5092166;28;20032;-55
2022/11/26 04:28:33;;;;;;;8.85;5.43;;;5.50;99.90;;;;;;5090814;28;20034;-52
2022/11/26 04:30:58;;;;;;;11.43;4.72;;;5.40;99.90;;;;;;5092107;28;20039;-52
2022/11/26 04:33:26;;;;;;;7.68;4.82;;;5.40;99.90;;;;;;5092103;28;20080;-53
2022/11/26 04:35:52;;;;;;;15.00;6.13;;;5.40;99.90;;;;;;5092026;28;20016;-52
2022/11/26 04:38:18;;;;;;;11.13;5.15;;;5.40;99.90;;;;;;5091975;28;20475;-52
2022/11/26 04:40:44;;;;;;;9.32;5.60;;;5.40;99.90;;;;;;5091840;28;20113;-51
2022/11/26 04:43:10;;;;;;;10.18;5.00;;;5.30;99.90;;;;;;5091874;28;20028;-53
2022/11/26 04:45:35;;;;;;;8.13;6.13;;;5.30;99.90;;;;;;5090238;28;20028;-52
2022/11/26 04:48:01;;;;;;;12.45;5.25;;;5.30;99.90;;;;;;5091581;28;20028;-54
2022/11/26 04:50:27;;;;;;;5.97;4.88;;;5.40;99.90;;;;;;5091681;28;20034;-53
2022/11/26 04:52:52;;;;;;;9.30;5.40;;;5.40;99.90;;;;;;5091285;28;20024;-52
2022/11/26 04:55:18;;;;;;;10.25;4.93;;;5.40;99.90;;;;;;5091425;28;20448;-52
2022/11/26 04:57:47;;;;;;;10.68;6.63;;;5.40;99.90;;;;;;5091144;28;20399;-51
2022/11/26 05:00:14;;;;;;;7.00;4.22;;;5.50;99.90;;;;;;5091569;28;20028;-55
2022/11/26 05:02:40;;;;;;;8.98;4.25;;;5.60;99.90;;;;;;5091194;28;20061;-51
2022/11/26 05:05:06;;;;;;;9.25;4.07;;;5.60;99.90;;;;;;5091500;28;20032;-51
2022/11/26 05:07:32;;;;;;;5.80;3.63;;;5.60;99.90;;;;;;5090447;28;20047;-52
2022/11/26 05:09:58;;;;;;;8.10;3.88;;;5.60;99.90;;;;;;5090298;28;20040;-52
2022/11/26 05:12:24;;;;;;;5.47;3.80;;;5.50;99.90;;;;;;5090308;28;20024;-51
2022/11/26 05:14:50;;;;;;;5.95;3.92;;;5.60;99.90;;;;;;5090058;28;20059;-51
2022/11/26 05:17:15;;;;;;;14.93;4.55;;;5.60;99.90;;;;;;5090224;28;20106;-51
2022/11/26 05:19:41;;;;;;;11.00;4.28;;;5.60;99.90;;;;;;5088547;28;20119;-52
2022/11/26 05:22:06;;;;;;;5.47;3.78;;;5.60;99.90;;;;;;5090205;28;20078;-52
2022/11/26 05:24:32;;;;;;;84.85;32.80;;;5.60;99.90;;;;;;5090245;28;20020;-53
2022/11/26 05:26:58;;;;;;;9.43;5.03;;;5.60;99.90;;;;;;5090143;28;20591;-53
2022/11/26 05:29:24;;;;;;;7.60;3.55;;;5.60;99.90;;;;;;5090252;28;20024;-51
2022/11/26 05:31:51;;;;;;;11.73;6.05;;;5.60;99.90;;;;;;5090091;28;20016;-52
2022/11/26 05:34:17;;;;;;;11.25;5.47;;;5.50;99.90;;;;;;5090112;28;20028;-52
2022/11/26 05:36:43;;;;;;;9.20;4.43;;;5.50;99.90;;;;;;5089998;28;20472;-51
2022/11/26 05:39:09;;;;;;;4.35;3.35;;;5.50;99.90;;;;;;5090094;28;20028;-52
2022/11/26 05:41:35;;;;;;;5.68;3.60;;;5.60;99.90;;;;;;5090062;28;20688;-54
2022/11/26 05:44:00;;;;;;;5.35;4.32;;;5.60;99.90;;;;;;5089971;28;20039;-53
2022/11/26 05:46:26;;;;;;;6.78;4.25;;;5.60;99.90;;;;;;5089893;28;20103;-52
2022/11/26 05:48:52;;;;;;;5.97;4.28;;;5.70;99.90;;;;;;5089956;28;20016;-53
2022/11/26 05:51:17;;;;;;;9.40;4.03;;;5.60;99.90;;;;;;5089799;28;20028;-53
2022/11/26 05:53:43;;;;;;;9.48;4.95;;;5.70;99.90;;;;;;5089860;28;20028;-51
2022/11/26 05:56:09;;;;;;;6.70;3.83;;;5.60;99.90;;;;;;5090034;28;20418;-50
2022/11/26 05:58:35;;;;;;;15.00;5.15;;;5.70;99.90;;;;;;5089791;28;20083;-53
2022/11/26 06:01:14;;;;;;;12.90;6.30;;;5.60;99.90;;;;;;5089822;28;20172;-52
2022/11/26 06:03:40;;;;;;;6.72;4.68;;;5.60;99.90;;;;;;5088338;28;20039;-53
2022/11/26 06:06:06;;;;;;;12.55;5.75;;;5.70;99.90;;;;;;5089706;28;20023;-51
2022/11/26 06:08:32;;;;;;;15.75;7.25;;;5.70;99.90;;;;;;5088413;28;20048;-52
2022/11/26 06:10:58;;;;;;;12.25;6.68;;;5.60;99.90;;;;;;5093419;28;20515;-52
2022/11/26 06:13:24;;;;;;;9.95;5.40;;;5.60;99.90;;;;;;5093118;28;20058;-52
2022/11/26 06:15:49;;;;;;;10.07;6.72;;;5.70;99.90;;;;;;5092018;28;20070;-52
2022/11/26 06:18:16;;;;;;;9.20;5.85;;;5.60;99.90;;;;;;5093141;28;20383;-52
2022/11/26 06:20:41;;;;;;;7.97;6.25;;;5.60;99.90;;;;;;5093611;28;20036;-52
2022/11/26 06:23:07;;;;;;;9.43;6.18;;;5.80;99.90;;;;;;5093928;28;20402;-52
2022/11/26 06:25:33;;;;;;;9.88;6.40;;;5.70;99.90;;;;;;5093348;28;20024;-51
2022/11/26 06:27:58;;;;;;;14.73;5.70;;;5.80;99.90;;;;;;5093128;28;20107;-51
2022/11/26 06:30:24;;;;;;;16.80;6.30;;;5.80;99.90;;;;;;5091724;28;20050;-51
2022/11/26 06:32:49;;;;;;;11.88;7.55;;;5.80;99.90;;;;;;5093172;28;20016;-52
2022/11/26 06:35:15;;;;;;;15.77;8.77;;;5.80;99.90;;;;;;5093179;28;20042;-52
2022/11/26 06:37:41;;;;;;;9.45;6.85;;;5.80;99.90;;;;;;5093356;28;20024;-51
2022/11/26 06:40:09;;;;;;;7.72;5.43;;;5.80;99.90;;;;;;5094081;28;20724;-52
2022/11/26 06:42:35;;;;;;;10.55;5.93;;;5.80;99.90;;;;;;5093900;28;20024;-52
2022/11/26 06:45:00;;;;;;;30.70;16.08;;;5.80;99.90;;;;;;5093969;28;20081;-52
2022/11/26 06:47:26;;;;;;;46.85;21.65;;;5.70;99.90;;;;;;5092764;28;20024;-51
2022/11/26 06:49:52;;;;;;;10.45;6.25;;;5.70;99.90;;;;;;5093771;28;20054;-51
2022/11/26 06:52:18;;;;;;;18.25;9.65;;;5.80;99.90;;;;;;5092664;28;20035;-54
2022/11/26 06:54:43;;;;;;;28.35;12.15;;;5.70;99.90;;;;;;5093615;28;20024;-51
2022/11/26 06:57:09;;;;;;;111.40;42.25;;;5.70;99.90;;;;;;5093990;28;20020;-52
2022/11/26 06:59:35;;;;;;;28.23;12.70;;;5.80;99.90;;;;;;5093857;28;20016;-51
2022/11/26 07:02:00;;;;;;;34.33;16.13;;;5.70;99.90;;;;;;5093569;28;20368;-50
2022/11/26 07:04:26;;;;;;;22.95;10.32;;;5.70;99.90;;;;;;5093557;28;20067;-51
2022/11/26 07:06:51;;;;;;;14.80;7.35;;;5.70;99.90;;;;;;5093556;28;20371;-50
2022/11/26 07:09:17;;;;;;;30.98;15.57;;;5.70;99.90;;;;;;5093660;28;20077;-53
2022/11/26 07:11:43;;;;;;;13.75;7.18;;;5.70;99.90;;;;;;5093463;28;20055;-52
2022/11/26 07:14:09;;;;;;;33.08;16.45;;;5.70;99.90;;;;;;5093906;28;20047;-50
2022/11/26 07:16:35;;;;;;;34.58;16.85;;;5.60;99.90;;;;;;5093514;28;20043;-52
2022/11/26 07:19:01;;;;;;;26.77;12.07;;;5.70;99.90;;;;;;5093404;28;20036;-51
2022/11/26 07:21:27;;;;;;;48.70;23.40;;;5.60;99.90;;;;;;5092846;28;20551;-51
2022/11/26 07:24:12;;;;;;;62.40;28.08;;;5.60;99.90;;;;;;5092005;28;20032;-52
2022/11/26 07:26:37;;;;;;;32.80;10.18;;;5.70;99.90;;;;;;5092964;28;20376;-51
2022/11/26 07:29:03;;;;;;;26.83;13.73;;;5.80;99.90;;;;;;5078830;28;20134;-50
2022/11/26 07:31:29;;;;;;;11.88;7.65;;;5.80;99.90;;;;;;5072425;28;20612;-50
2022/11/26 07:33:56;;;;;;;8.20;5.15;;;5.80;99.90;;;;;;5071260;28;20112;-50
2022/11/26 07:36:26;;;;;;;14.18;9.70;;;5.90;99.90;;;;;;5070401;28;20078;-51
2022/11/26 07:38:54;;;;;;;13.65;6.65;;;5.90;99.90;;;;;;5071538;28;20024;-50
2022/11/26 07:41:20;;;;;;;12.13;6.28;;;6.10;99.90;;;;;;5072255;28;20070;-52
2022/11/26 07:43:46;;;;;;;13.15;6.40;;;6.10;99.90;;;;;;5071902;28;20040;-51
2022/11/26 07:46:16;;;;;;;6.88;5.43;;;6.20;99.90;;;;;;5071393;28;20545;-51
2022/11/26 07:48:42;;;;;;;10.40;5.80;;;6.20;99.90;;;;;;5071193;28;20024;-51
2022/11/26 07:51:19;;;;;;;9.57;5.35;;;6.10;99.90;;;;;;5069970;28;20024;-52
2022/11/26 07:54:05;;;;;;;11.60;5.55;;;6.10;99.90;;;;;;5069740;28;20055;-53
2022/11/26 07:56:31;;;;;;;12.57;6.43;;;6.10;99.90;;;;;;5071003;28;20025;-51
2022/11/26 07:58:57;;;;;;;12.32;5.72;;;6.20;99.90;;;;;;5071124;28;20086;-51
2022/11/26 08:01:28;;;;;;;7.05;5.50;;;6.10;99.90;;;;;;5070795;28;20013;-50
2022/11/26 08:03:54;;;;;;;9.70;5.65;;;6.20;99.90;;;;;;5071241;28;20042;-50
2022/11/26 08:06:23;;;;;;;10.00;5.53;;;6.20;99.90;;;;;;5069525;28;20025;-50
2022/11/26 08:08:49;;;;;;;10.02;5.75;;;6.30;99.90;;;;;;5069388;28;20021;-54
2022/11/26 08:11:21;;;;;;;10.05;5.55;;;6.30;99.90;;;;;;5069985;28;20464;-51
2022/11/26 08:13:48;;;;;;;12.77;6.00;;;6.30;99.90;;;;;;5069919;28;20088;-50
2022/11/26 08:16:14;;;;;;;8.57;5.45;;;6.40;99.90;;;;;;5069868;28;20036;-51
2022/11/26 08:18:40;;;;;;;8.57;5.78;;;6.40;99.90;;;;;;5070251;28;20017;-52
2022/11/26 08:21:06;;;;;;;9.23;6.07;;;6.40;99.90;;;;;;5070279;28;20048;-50
2022/11/26 08:23:32;;;;;;;12.48;6.93;;;6.40;99.90;;;;;;5070799;28;20025;-52
2022/11/26 08:26:03;;;;;;;10.75;6.70;;;6.40;99.90;;;;;;5070526;28;20070;-52
2022/11/26 08:28:28;;;;;;;12.30;6.88;;;6.40;99.90;;;;;;5070381;28;20020;-49
2022/11/26 08:31:01;;;;;;;8.35;5.65;;;6.40;99.90;;;;;;5070898;28;20029;-51
2022/11/26 08:33:27;;;;;;;20.73;12.40;;;6.50;99.90;;;;;;5070476;28;20070;-50
2022/11/26 08:35:55;;;;;;;22.75;10.20;;;6.50;99.90;;;;;;5070040;28;20028;-52
2022/11/26 08:38:22;;;;;;;11.30;6.47;;;6.40;99.90;;;;;;5070308;28;20113;-53
2022/11/26 08:40:47;;;;;;;25.08;11.80;;;6.40;99.90;;;;;;5071558;28;20063;-51
2022/11/26 08:43:13;;;;;;;11.07;7.85;;;6.40;99.90;;;;;;5071349;28;20052;-52
2022/11/26 08:45:38;;;;;;;15.63;7.35;;;6.40;99.90;;;;;;5071229;28;20025;-51
2022/11/26 08:48:04;;;;;;;8.73;6.20;;;6.50;99.90;;;;;;5071421;28;20563;-51
2022/11/26 08:50:30;;;;;;;68.15;31.50;;;6.50;99.90;;;;;;5071665;28;20073;-52
2022/11/26 08:52:56;;;;;;;13.23;8.32;;;6.50;99.90;;;;;;5070740;28;20044;-51
2022/11/26 08:55:21;;;;;;;50.72;22.48;;;6.50;99.90;;;;;;5070748;28;20487;-50
2022/11/26 08:57:47;;;;;;;33.15;14.98;;;6.40;99.90;;;;;;5070037;28;20469;-50
2022/11/26 09:00:13;;;;;;;16.75;8.60;;;6.30;99.90;;;;;;5071317;28;20033;-62
2022/11/26 09:02:39;;;;;;;13.63;6.00;;;6.30;99.90;;;;;;5071194;28;20483;-53
2022/11/26 09:05:05;;;;;;;9.05;6.93;;;6.50;99.90;;;;;;5067976;28;20020;-54
2022/11/26 09:07:30;;;;;;;11.48;5.82;;;6.40;99.90;;;;;;5081382;28;20085;-54
2022/11/26 09:09:56;;;;;;;15.50;8.00;;;6.40;99.90;;;;;;5071767;28;20422;-51
2022/11/26 09:12:22;;;;;;;19.10;8.65;;;6.40;99.90;;;;;;5071187;28;20082;-54
2022/11/26 09:14:47;;;;;;;55.30;19.42;;;6.40;99.90;;;;;;5069967;28;20032;-50
2022/11/26 09:17:13;;;;;;;38.35;17.60;;;6.40;99.90;;;;;;5069995;28;20032;-52
2022/11/26 09:19:39;;;;;;;79.90;27.48;;;6.40;99.90;;;;;;5070465;28;20099;-54
2022/11/26 09:22:04;;;;;;;18.33;7.68;;;6.30;99.90;;;;;;5070828;28;20541;-51
2022/11/26 09:24:30;;;;;;;175.15;58.63;;;6.40;99.90;;;;;;5070910;28;20060;-52
2022/11/26 09:26:56;;;;;;;155.05;55.97;;;6.60;99.90;;;;;;5079827;28;20062;-51
2022/11/26 09:29:33;;;;;;;140.05;49.47;;;6.60;99.90;;;;;;5091010;28;20069;-51
2022/11/26 09:32:00;;;;;;;17.98;9.88;;;6.70;99.90;;;;;;5091188;28;20032;-54
2022/11/26 09:34:26;;;;;;;287.95;90.07;;;6.90;99.90;;;;;;5085406;28;20046;-53
2022/11/26 09:36:51;;;;;;;27.42;12.55;;;6.90;99.90;;;;;;5076584;28;20455;-51
2022/11/26 09:39:17;;;;;;;19.73;9.85;;;6.90;99.90;;;;;;5091207;28;20371;-52
2022/11/26 09:41:51;;;;;;;60.85;22.17;;;7.20;99.90;;;;;;5090712;28;20031;-53
2022/11/26 09:44:53;;;;;;;15.00;8.02;;;7.10;99.90;;;;;;5092582;28;20423;-50
2022/11/26 09:47:27;;;;;;;161.88;51.83;;;7.20;99.90;;;;;;5093943;28;20039;-53
2022/11/26 09:50:05;;;;;;;14.70;7.57;;;7.10;99.90;;;;;;5094772;28;20025;-53
2022/11/26 09:52:52;;;;;;;13.63;7.95;;;7.20;99.90;;;;;;5083524;28;20055;-52
2022/11/26 09:55:21;;;;;;;10.05;8.10;;;7.10;99.90;;;;;;5073267;28;20481;-51
2022/11/26 09:58:13;;;;;;;8.95;5.82;;;7.10;99.90;;;;;;5082020;28;20027;-50
2022/11/26 10:00:45;;;;;;;14.52;6.72;;;7.00;99.90;;;;;;5093010;28;20012;-53
2022/11/26 10:03:32;;;;;;;11.55;7.50;;;7.00;99.90;;;;;;5093757;28;20420;-51
2022/11/26 10:06:29;;;;;;;15.15;7.43;;;7.10;99.90;;;;;;5093447;28;20081;-51
2022/11/26 10:09:13;;;;;;;11.70;6.57;;;7.10;99.90;;;;;;5079829;28;20457;-51
2022/11/26 10:11:56;;;;;;;10.07;6.53;;;7.10;99.90;;;;;;5093120;28;20070;-52
2022/11/26 10:15:03;;;;;;;11.53;6.73;;;7.10;99.90;;;;;;5093084;28;20024;-51
2022/11/26 10:17:31;;;;;;;14.32;6.72;;;7.20;99.90;;;;;;5092542;28;20032;-51
2022/11/26 10:20:03;;;;;;;18.15;6.70;;;7.40;99.90;;;;;;5092943;28;20088;-55
2022/11/26 10:22:44;;;;;;;11.07;6.60;;;7.60;99.90;;;;;;5082015;28;20519;-51
2022/11/26 10:25:37;;;;;;;7.95;6.07;;;7.70;99.90;;;;;;5073071;28;20071;-52
2022/11/26 10:28:17;;;;;;;11.85;7.13;;;7.70;99.90;;;;;;5072550;28;20376;-51
2022/11/26 10:30:43;;;;;;;9.02;6.60;;;7.80;99.90;;;;;;5072463;28;20029;-51
2022/11/26 10:33:14;;;;;;;10.57;6.90;;;7.70;99.90;;;;;;5072278;28;20115;-52
2022/11/26 10:35:41;;;;;;;15.82;8.48;;;7.80;99.90;;;;;;5070920;28;20021;-51
2022/11/26 10:38:09;;;;;;;15.75;7.43;;;7.70;99.90;;;;;;5072118;28;20108;-52
2022/11/26 10:40:35;;;;;;;10.88;6.97;;;7.60;99.90;;;;;;5072722;28;20039;-53
2022/11/26 10:43:08;;;;;;;10.20;7.53;;;7.60;99.90;;;;;;5072405;28;20028;-51
2022/11/26 10:46:00;;;;;;;10.68;6.45;;;7.70;99.90;;;;;;5072664;28;20082;-51
2022/11/26 10:48:30;;;;;;;10.05;5.85;;;7.90;99.90;;;;;;5072113;28;20107;-52
2022/11/26 10:51:29;;;;;;;13.27;5.45;;;8.20;99.90;;;;;;5071232;28;20031;-51
2022/11/26 10:54:03;;;;;;;11.82;6.57;;;8.60;99.90;;;;;;5072229;28;20049;-51
2022/11/26 10:56:38;;;;;;;9.23;5.05;;;8.80;99.90;;;;;;5071849;28;20039;-51
2022/11/26 10:59:18;;;;;;;16.88;6.53;;;8.90;99.90;;;;;;5072242;28;20017;-51
2022/11/26 11:01:45;;;;;;;7.47;5.25;;;8.70;99.90;;;;;;5070820;28;20017;-51
2022/11/26 11:04:33;;;;;;;7.75;6.22;;;8.70;99.90;;;;;;5072260;28;20028;-54
2022/11/26 11:06:59;;;;;;;9.48;6.55;;;8.50;99.90;;;;;;5072285;28;20056;-53
2022/11/26 11:09:37;;;;;;;11.32;6.22;;;8.20;99.90;;;;;;5071867;28;20048;-51
2022/11/26 11:12:16;;;;;;;11.90;6.47;;;8.10;99.90;;;;;;5089853;28;20081;-53
2022/11/26 11:14:46;;;;;;;8.68;6.65;;;8.00;99.90;;;;;;5092834;28;20020;-55
2022/11/26 11:17:36;;;;;;;9.75;7.25;;;7.90;99.90;;;;;;5100885;28;20071;-53
2022/11/26 11:20:42;;;;;;;16.48;7.25;;;7.80;99.90;;;;;;5094096;28;20040;-53
2022/11/26 11:23:10;;;;;;;8.32;6.90;;;7.70;99.90;;;;;;5073286;28;20033;-51
2022/11/26 11:25:43;;;;;;;13.40;6.78;;;7.70;99.90;;;;;;5073384;28;20032;-52
2022/11/26 11:28:11;;;;;;;14.75;8.45;;;7.70;99.90;;;;;;5073369;28;20024;-54
2022/11/26 11:30:39;;;;;;;12.32;9.15;;;7.50;99.90;;;;;;5072905;28;20036;-52
2022/11/26 11:33:32;;;;;;;11.55;7.78;;;7.60;99.90;;;;;;5080978;28;20057;-51
2022/11/26 11:36:16;;;;;;;15.93;7.70;;;7.50;99.90;;;;;;5090784;28;20097;-52
2022/11/26 11:38:46;;;;;;;;;;;7.40;99.90;;;;;;5093328;28;20016;-52
2022/11/26 11:41:25;;;;;;;15.80;10.75;;;7.30;99.90;;;;;;5092746;28;19908;-52
2022/11/26 11:44:02;;;;;;;19.88;11.20;;;7.40;99.90;;;;;;5091539;28;20032;-51
2022/11/26 11:46:41;;;;;;;17.10;12.05;;;7.50;99.90;;;;;;5092948;28;20039;-52
2022/11/26 11:49:39;;;;;;;20.58;11.88;;;7.60;99.90;;;;;;5092829;28;20049;-52
2022/11/26 11:52:17;;;;;;;23.85;12.27;;;7.80;99.90;;;;;;5092830;28;20032;-50
2022/11/26 11:54:56;;;;;;;18.17;13.00;;;7.80;99.90;;;;;;5092072;28;20107;-51
2022/11/26 11:57:36;;;;;;;17.30;9.90;;;7.70;99.90;;;;;;5092787;28;20013;-51
2022/11/26 12:00:15;;;;;;;10.23;7.32;;;7.70;99.90;;;;;;5092198;28;20081;-50
2022/11/26 12:03:13;;;;;;;15.80;7.78;;;7.80;99.90;;;;;;5092693;28;20024;-55
2022/11/26 12:05:58;;;;;;;10.30;6.15;;;7.80;99.90;;;;;;5085041;28;20511;-52
2022/11/26 12:08:30;;;;;;;9.60;6.85;;;7.60;99.90;;;;;;5091884;28;20073;-52
2022/11/26 12:11:10;;;;;;;8.02;6.28;;;7.70;99.90;;;;;;5073112;28;20024;-53
2022/11/26 12:13:45;;;;;;;11.23;7.82;;;7.60;99.90;;;;;;5072168;28;20162;-52
2022/11/26 12:16:12;;;;;;;13.55;8.38;;;7.60;99.90;;;;;;5046321;28;20032;-54
2022/11/26 12:18:46;;;;;;;14.43;9.45;;;7.60;99.90;;;;;;5044179;28;20024;-56
2022/11/26 12:21:15;;;;;;;30.20;15.90;;;7.60;99.90;;;;;;5053254;28;20037;-53
2022/11/26 12:23:54;;;;;;;17.65;10.32;;;7.60;99.90;;;;;;5039455;28;20036;-50
2022/11/26 12:26:28;;;;;;;15.20;10.25;;;7.60;99.90;;;;;;5035888;28;20499;-55
2022/11/26 12:29:03;;;;;;;15.30;9.57;;;7.90;99.90;;;;;;5036050;28;20036;-51
2022/11/26 12:31:42;;;;;;;13.40;9.68;;;8.60;99.90;;;;;;5036792;28;20090;-52
2022/11/26 12:34:13;;;;;;;18.05;8.88;;;9.30;99.90;;;;;;5062841;28;20102;-51
2022/11/26 12:36:45;;;;;;;12.98;6.60;;;10.20;99.90;;;;;;5081648;28;20159;-55
2022/11/26 12:39:18;;;;;;;8.93;5.63;;;12.10;99.90;;;;;;5080804;28;20040;-53
2022/11/26 12:41:55;;;;;;;10.93;5.70;;;12.80;99.90;;;;;;5061695;28;20039;-53
2022/11/26 12:44:32;;;;;;;7.10;5.90;;;12.60;99.90;;;;;;5061188;28;20040;-54
2022/11/26 12:47:19;;;;;;;11.38;6.38;;;11.50;99.90;;;;;;5062805;28;20126;-52
2022/11/26 12:49:53;;;;;;;10.07;6.03;;;11.10;99.90;;;;;;5063629;28;20035;-51
2022/11/26 12:52:48;;;;;;;6.32;4.82;;;12.50;99.90;;;;;;5060699;28;20402;-52
2022/11/26 12:55:27;;;;;;;12.07;4.78;;;14.40;99.90;;;;;;5059333;28;20079;-55
2022/11/26 12:58:15;;;;;;;10.07;5.47;;;15.10;97.60;;;;;;5072633;28;20074;-53
2022/11/26 13:00:41;;;;;;;10.30;5.20;;;14.20;96.50;;;;;;5068857;28;20025;-52
2022/11/26 13:03:13;;;;;;;12.60;6.97;;;13.20;99.80;;;;;;5062039;28;20036;-53
2022/11/26 13:05:57;;;;;;;10.73;5.38;;;13.00;99.50;;;;;;5066641;28;20024;-57
2022/11/26 13:08:35;;;;;;;16.35;7.65;;;12.40;99.50;;;;;;5070700;28;20090;-56